createdAt,value
2023-05-08T00:01:34.201Z,15.35
2023-05-08T00:04:03.949Z,17.23
2023-05-08T00:06:33.897Z,16.42
2023-05-08T00:09:03.326Z,20.55
2023-05-08T00:11:35.107Z,15.30
2023-05-08T00:14:04.420Z,16.70
2023-05-08T00:16:32.367Z,17.88
2023-05-08T00:18:59.470Z,17.88
2023-05-08T00:21:27.092Z,17.80
2023-05-08T00:23:56.416Z,19.02
2023-05-08T00:26:25.966Z,17.98
2023-05-08T00:28:53.050Z,20.42
2023-05-08T00:31:22.909Z,19.88
2023-05-08T00:33:49.956Z,19.17
2023-05-08T00:36:17.379Z,17.85
2023-05-08T00:38:44.403Z,20.13
2023-05-08T00:41:11.757Z,20.83
2023-05-08T00:43:38.743Z,19.23
2023-05-08T00:46:06.255Z,19.05
2023-05-08T00:48:36.205Z,19.27
2023-05-08T00:51:08.567Z,19.38
2023-05-08T00:53:41.839Z,17.77
2023-05-08T00:56:18.708Z,20.20
2023-05-08T00:58:45.863Z,21.42
2023-05-08T01:01:13.358Z,23.23
2023-05-08T01:03:40.867Z,24.00
2023-05-08T01:06:11.029Z,24.58
2023-05-08T01:08:40.550Z,20.90
2023-05-08T01:11:22.834Z,25.17
2023-05-08T01:14:04.870Z,22.35
2023-05-08T01:16:51.014Z,19.52
2023-05-08T01:19:53.149Z,19.48
2023-05-08T01:22:49.495Z,23.08
2023-05-08T01:25:22.380Z,20.30
2023-05-08T01:27:58.531Z,19.95
2023-05-08T01:30:44.231Z,19.90
2023-05-08T01:33:35.066Z,18.63
2023-05-08T01:36:33.979Z,20.40
2023-05-08T01:39:10.033Z,18.35
2023-05-08T01:41:41.204Z,19.60
2023-05-08T01:44:19.712Z,19.80
2023-05-08T01:46:50.938Z,18.52
2023-05-08T01:49:26.664Z,24.00
2023-05-08T01:52:05.752Z,19.33
2023-05-08T01:54:55.808Z,15.68
2023-05-08T01:57:28.510Z,17.50
2023-05-08T01:59:59.991Z,19.23
2023-05-08T02:02:30.404Z,17.45
2023-05-08T02:04:58.942Z,17.92
2023-05-08T02:07:26.546Z,17.85
2023-05-08T02:09:55.885Z,18.63
2023-05-08T02:12:24.611Z,18.02
2023-05-08T02:14:53.858Z,21.17
2023-05-08T02:17:24.710Z,16.05
2023-05-08T02:19:56.638Z,16.92
2023-05-08T02:22:27.490Z,16.20
2023-05-08T02:24:56.415Z,15.60
2023-05-08T02:27:29.085Z,16.80
2023-05-08T02:29:57.240Z,17.60
2023-05-08T02:32:28.415Z,15.88
2023-05-08T02:35:03.127Z,15.60
2023-05-08T02:37:34.054Z,16.42
2023-05-08T02:40:04.361Z,16.48
2023-05-08T02:42:31.489Z,16.55
2023-05-08T02:45:01.434Z,16.92
2023-05-08T02:47:53.085Z,15.40
2023-05-08T02:50:43.611Z,14.90
2023-05-08T02:53:16.164Z,17.25
2023-05-08T02:55:49.400Z,17.38
2023-05-08T02:58:40.531Z,17.73
2023-05-08T03:03:53.219Z,18.73
2023-05-08T03:06:24.286Z,17.42
2023-05-08T03:08:53.997Z,15.90
2023-05-08T03:11:32.273Z,17.40
2023-05-08T03:14:01.901Z,17.15
2023-05-08T03:16:36.531Z,16.73
2023-05-08T03:19:10.435Z,14.50
2023-05-08T03:21:40.982Z,14.30
2023-05-08T03:24:09.649Z,17.10
2023-05-08T03:26:37.415Z,14.13
2023-05-08T03:29:06.095Z,13.52
2023-05-08T03:31:34.914Z,14.70
2023-05-08T03:34:02.993Z,12.82
2023-05-08T03:36:30.972Z,14.40
2023-05-08T03:38:59.568Z,13.48
2023-05-08T03:41:26.996Z,13.43
2023-05-08T03:43:56.036Z,13.80
2023-05-08T03:46:24.094Z,13.93
2023-05-08T03:48:53.167Z,12.50
2023-05-08T03:51:21.826Z,12.48
2023-05-08T03:53:49.164Z,14.40
2023-05-08T03:56:19.189Z,13.18
2023-05-08T03:59:09.302Z,15.40
2023-05-08T04:01:44.329Z,12.88
2023-05-08T04:04:40.867Z,15.98
2023-05-08T04:07:14.036Z,18.25
2023-05-08T04:09:55.325Z,18.27
2023-05-08T04:12:33.175Z,14.07
2023-05-08T04:15:28.909Z,16.42
2023-05-08T04:18:02.794Z,16.60
2023-05-08T04:20:33.583Z,15.40
2023-05-08T04:23:02.159Z,14.73
2023-05-08T04:25:36.061Z,14.45
2023-05-08T04:28:04.761Z,14.60
2023-05-08T04:30:32.014Z,12.90
2023-05-08T04:33:00.361Z,14.02
2023-05-08T04:35:29.970Z,15.95
2023-05-08T04:38:02.826Z,14.15
2023-05-08T04:40:29.954Z,13.60
2023-05-08T04:42:57.372Z,12.60
2023-05-08T04:45:24.811Z,13.35
2023-05-08T04:47:52.166Z,12.60
2023-05-08T04:50:19.265Z,18.30
2023-05-08T04:52:46.625Z,12.18
2023-05-08T04:55:13.887Z,11.18
2023-05-08T04:57:41.404Z,12.63
2023-05-08T05:00:08.965Z,12.07
2023-05-08T05:02:38.617Z,9.75
2023-05-08T05:05:06.301Z,13.20
2023-05-08T05:07:33.754Z,9.68
2023-05-08T05:10:01.132Z,9.20
2023-05-08T05:12:28.466Z,10.90
2023-05-08T05:14:55.523Z,9.60
2023-05-08T05:17:22.931Z,9.10
2023-05-08T05:19:55.383Z,8.15
2023-05-08T05:22:23.688Z,9.80
2023-05-08T05:24:53.464Z,8.68
2023-05-08T05:27:21.449Z,10.65
2023-05-08T05:29:51.124Z,9.20
2023-05-08T05:32:20.763Z,12.27
2023-05-08T05:34:51.104Z,9.95
2023-05-08T05:37:18.490Z,9.43
2023-05-08T05:39:45.567Z,10.13
2023-05-08T05:42:15.410Z,8.05
2023-05-08T05:44:42.468Z,10.45
2023-05-08T05:47:09.977Z,7.93
2023-05-08T05:49:37.281Z,9.35
2023-05-08T05:52:04.767Z,6.50
2023-05-08T05:54:31.760Z,7.28
2023-05-08T05:56:59.086Z,6.60
2023-05-08T05:59:26.083Z,8.63
2023-05-08T06:01:53.501Z,10.27
2023-05-08T06:04:20.636Z,9.13
2023-05-08T06:06:48.026Z,7.82
2023-05-08T06:09:15.073Z,9.80
2023-05-08T06:11:42.479Z,8.48
2023-05-08T06:14:11.999Z,8.20
2023-05-08T06:16:39.587Z,8.45
2023-05-08T06:19:09.131Z,8.90
2023-05-08T06:21:36.556Z,9.85
2023-05-08T06:24:03.780Z,9.23
2023-05-08T06:26:33.323Z,9.25
2023-05-08T06:29:02.606Z,8.13
2023-05-08T06:31:30.007Z,10.35
2023-05-08T06:33:57.224Z,10.00
2023-05-08T06:36:24.573Z,9.07
2023-05-08T06:38:51.647Z,10.50
2023-05-08T06:41:21.179Z,11.75
2023-05-08T06:43:48.186Z,8.40
2023-05-08T06:46:15.666Z,7.65
2023-05-08T06:48:45.047Z,8.50
2023-05-08T06:51:12.364Z,7.50
2023-05-08T06:53:39.378Z,9.07
2023-05-08T06:56:07.216Z,7.30
2023-05-08T06:58:36.426Z,6.90
2023-05-08T07:01:03.772Z,8.57
2023-05-08T07:03:30.852Z,7.30
2023-05-08T07:06:00.621Z,6.55
2023-05-08T07:08:29.864Z,5.25
2023-05-08T07:10:59.687Z,5.28
2023-05-08T07:13:26.808Z,5.53
2023-05-08T07:15:54.488Z,5.30
2023-05-08T07:18:21.619Z,6.53
2023-05-08T07:20:48.992Z,5.15
2023-05-08T07:23:16.017Z,6.35
2023-05-08T07:25:43.342Z,6.00
2023-05-08T07:28:10.408Z,6.00
2023-05-08T07:30:37.805Z,10.48
2023-05-08T07:33:07.313Z,6.50
2023-05-08T07:35:34.775Z,6.97
2023-05-08T07:38:04.292Z,5.82
2023-05-08T07:40:31.653Z,6.65
2023-05-08T07:43:01.036Z,5.30
2023-05-08T07:45:28.549Z,7.68
2023-05-08T07:47:57.636Z,6.63
2023-05-08T07:50:26.446Z,8.57
2023-05-08T07:52:53.649Z,4.68
2023-05-08T07:55:21.047Z,6.35
2023-05-08T07:57:48.118Z,8.13
2023-05-08T08:00:16.506Z,5.88
2023-05-08T08:02:44.788Z,5.53
2023-05-08T08:05:12.940Z,6.78
2023-05-08T08:07:40.253Z,5.68
2023-05-08T08:10:08.223Z,4.13
2023-05-08T08:12:35.380Z,6.32
2023-05-08T08:15:02.848Z,6.40
2023-05-08T08:17:29.953Z,5.25
2023-05-08T08:19:57.547Z,6.45
2023-05-08T08:22:25.995Z,5.63
2023-05-08T08:24:55.672Z,5.57
2023-05-08T08:27:23.400Z,7.28
2023-05-08T08:30:04.495Z,5.30
2023-05-08T08:32:38.106Z,5.88
2023-05-08T08:35:05.955Z,9.88
2023-05-08T08:37:35.584Z,5.78
2023-05-08T08:40:06.088Z,7.72
2023-05-08T08:42:33.506Z,6.60
2023-05-08T08:45:03.331Z,14.73
2023-05-08T08:47:36.370Z,6.20
2023-05-08T08:50:07.956Z,4.57
2023-05-08T08:53:00.621Z,5.60
2023-05-08T08:55:31.087Z,6.32
2023-05-08T08:58:16.062Z,6.05
2023-05-08T09:00:46.891Z,9.88
2023-05-08T09:03:16.417Z,7.15
2023-05-08T09:05:44.325Z,6.93
2023-05-08T09:08:12.276Z,7.75
2023-05-08T09:10:40.072Z,5.88
2023-05-08T09:13:07.317Z,7.35
2023-05-08T09:15:34.938Z,6.13
2023-05-08T09:18:02.834Z,6.70
2023-05-08T09:20:30.663Z,5.93
2023-05-08T09:23:00.748Z,8.50
2023-05-08T09:25:41.782Z,7.65
2023-05-08T09:28:16.161Z,8.48
2023-05-08T09:30:53.661Z,9.75
2023-05-08T09:33:22.508Z,8.52
2023-05-08T09:35:50.746Z,7.07
2023-05-08T09:38:33.862Z,10.32
2023-05-08T09:41:12.274Z,8.30
2023-05-08T09:43:47.794Z,7.65
2023-05-08T09:46:26.641Z,9.45
2023-05-08T09:48:58.584Z,8.20
2023-05-08T09:51:30.232Z,9.67
2023-05-08T09:54:00.356Z,8.32
2023-05-08T09:56:34.613Z,10.30
2023-05-08T09:59:03.675Z,10.05
2023-05-08T10:01:36.994Z,10.00
2023-05-08T10:04:06.701Z,11.10
2023-05-08T10:06:34.224Z,11.73
2023-05-08T10:09:08.918Z,9.25
2023-05-08T10:11:36.723Z,9.23
2023-05-08T10:14:06.013Z,10.60
2023-05-08T10:16:41.014Z,9.88
2023-05-08T10:19:15.779Z,10.15
2023-05-08T10:21:48.408Z,10.48
2023-05-08T10:24:21.818Z,14.05
2023-05-08T10:27:13.439Z,10.85
2023-05-08T10:29:46.431Z,11.27
2023-05-08T10:32:19.111Z,11.10
2023-05-08T10:34:52.174Z,11.43
2023-05-08T10:39:49.226Z,10.38
2023-05-08T10:42:16.831Z,14.45
2023-05-08T10:44:44.306Z,11.68
2023-05-08T10:47:30.594Z,10.35
2023-05-08T10:50:22.700Z,12.77
2023-05-08T10:53:13.624Z,11.93
2023-05-08T10:55:42.538Z,11.93
2023-05-08T10:58:11.708Z,11.50
2023-05-08T11:00:54.680Z,12.57
2023-05-08T11:03:32.048Z,16.63
2023-05-08T11:06:01.824Z,12.57
2023-05-08T11:08:31.621Z,13.05
2023-05-08T11:11:00.359Z,12.10
2023-05-08T11:13:47.116Z,11.75
2023-05-08T11:16:16.701Z,13.63
2023-05-08T11:19:18.974Z,14.15
2023-05-08T11:22:10.651Z,11.32
2023-05-08T11:24:39.563Z,11.77
2023-05-08T11:27:09.227Z,11.55
2023-05-08T11:29:36.650Z,13.00
2023-05-08T11:32:04.047Z,14.77
2023-05-08T11:34:43.846Z,11.20
2023-05-08T11:37:16.574Z,13.45
2023-05-08T11:39:43.993Z,11.88
2023-05-08T11:42:26.413Z,13.05
2023-05-08T11:45:08.992Z,14.82
2023-05-08T11:47:40.352Z,13.55
2023-05-08T11:50:14.481Z,11.45
2023-05-08T11:52:42.780Z,12.73
2023-05-08T11:55:11.724Z,11.02
2023-05-08T11:57:39.291Z,14.10
2023-05-08T12:00:10.619Z,12.45
2023-05-08T12:02:43.357Z,12.77
2023-05-08T12:05:11.853Z,15.82
2023-05-08T12:07:48.403Z,14.32
2023-05-08T12:10:16.989Z,12.48
2023-05-08T12:12:45.350Z,11.23
2023-05-08T12:15:17.543Z,11.90
2023-05-08T12:17:44.630Z,14.38
2023-05-08T12:20:17.524Z,14.15
2023-05-08T12:22:53.922Z,14.27
2023-05-08T12:25:21.440Z,16.15
2023-05-08T12:27:51.430Z,12.30
2023-05-08T12:30:19.130Z,12.85
2023-05-08T12:32:47.082Z,13.65
2023-05-08T12:35:15.196Z,12.13
2023-05-08T12:37:42.326Z,14.20
2023-05-08T12:40:30.183Z,12.15
2023-05-08T12:42:57.912Z,12.10
2023-05-08T12:45:30.368Z,11.10
2023-05-08T12:48:02.992Z,11.32
2023-05-08T12:50:35.110Z,11.35
2023-05-08T12:53:07.009Z,11.95
2023-05-08T12:55:36.562Z,13.13
2023-05-08T12:58:04.945Z,18.00
2023-05-08T13:00:43.419Z,16.52
2023-05-08T13:03:14.549Z,12.93
2023-05-08T13:05:43.782Z,13.07
2023-05-08T13:08:10.929Z,11.70
2023-05-08T13:10:50.208Z,14.98
2023-05-08T13:13:23.680Z,12.13
2023-05-08T13:15:52.281Z,17.92
2023-05-08T13:18:27.471Z,15.20
2023-05-08T13:21:00.354Z,14.07
2023-05-08T13:23:27.581Z,13.48
2023-05-08T13:25:56.142Z,14.15
2023-05-08T13:28:23.257Z,13.82
2023-05-08T13:30:52.826Z,13.88
2023-05-08T13:33:19.816Z,14.02
2023-05-08T13:35:47.358Z,13.57
2023-05-08T13:38:14.401Z,13.07
2023-05-08T13:40:41.798Z,11.07
2023-05-08T13:43:08.928Z,10.65
2023-05-08T13:45:36.260Z,14.65
2023-05-08T13:48:03.373Z,10.43
2023-05-08T13:50:33.231Z,14.15
2023-05-08T13:53:00.220Z,10.82
2023-05-08T13:55:27.636Z,11.30
2023-05-08T13:57:54.691Z,16.92
2023-05-08T14:00:26.011Z,13.38
2023-05-08T14:02:55.176Z,12.40
2023-05-08T14:05:24.940Z,10.88
2023-05-08T14:07:51.985Z,12.20
2023-05-08T14:10:21.994Z,11.15
2023-05-08T14:12:49.051Z,11.38
2023-05-08T14:15:18.662Z,12.07
2023-05-08T14:17:48.030Z,11.93
2023-05-08T14:20:17.683Z,15.70
2023-05-08T14:22:47.365Z,11.20
2023-05-08T14:25:15.018Z,11.93
2023-05-08T14:27:42.293Z,11.50
2023-05-08T14:30:13.056Z,9.98
2023-05-08T14:32:40.235Z,10.73
2023-05-08T14:35:07.844Z,11.50
2023-05-08T14:37:34.972Z,9.93
2023-05-08T14:40:02.354Z,12.63
2023-05-08T14:42:29.400Z,11.18
2023-05-08T14:44:56.911Z,11.20
2023-05-08T14:47:24.045Z,13.32
2023-05-08T14:49:51.596Z,10.70
2023-05-08T14:52:18.690Z,11.23
2023-05-08T14:54:46.208Z,12.07
2023-05-08T14:57:13.436Z,10.65
2023-05-08T14:59:46.113Z,10.05
2023-05-08T15:02:24.283Z,10.20
2023-05-08T15:04:54.308Z,11.63
2023-05-08T15:07:21.395Z,10.57
2023-05-08T15:09:48.765Z,11.45
2023-05-08T15:12:18.511Z,11.13
2023-05-08T15:14:46.002Z,12.63
2023-05-08T15:17:17.608Z,10.40
2023-05-08T15:19:45.069Z,9.68
2023-05-08T15:22:14.800Z,10.55
2023-05-08T15:24:42.275Z,10.73
2023-05-08T15:27:14.172Z,10.35
2023-05-08T15:29:41.622Z,10.75
2023-05-08T15:32:08.705Z,10.45
2023-05-08T15:34:36.658Z,8.82
2023-05-08T15:37:07.412Z,10.98
2023-05-08T15:39:36.274Z,10.75
2023-05-08T15:42:03.344Z,9.82
2023-05-08T15:44:47.892Z,11.20
2023-05-08T15:47:18.419Z,10.18
2023-05-08T15:49:48.032Z,10.43
2023-05-08T15:52:15.138Z,8.10
2023-05-08T15:54:45.057Z,8.68
2023-05-08T15:57:12.429Z,7.93
2023-05-08T15:59:40.164Z,9.80
2023-05-08T16:02:10.280Z,8.15
2023-05-08T16:04:37.918Z,8.35
2023-05-08T16:07:07.354Z,8.98
2023-05-08T16:09:34.710Z,7.47
2023-05-08T16:12:01.723Z,12.43
2023-05-08T16:14:29.102Z,8.82
2023-05-08T16:16:56.186Z,7.15
2023-05-08T16:19:24.002Z,8.15
2023-05-08T16:21:53.572Z,8.32
2023-05-08T16:24:21.036Z,11.77
2023-05-08T16:26:50.309Z,9.52
2023-05-08T16:29:17.836Z,8.38
2023-05-08T16:31:47.603Z,8.32
2023-05-08T16:34:17.279Z,9.30
2023-05-08T16:36:46.925Z,8.30
2023-05-08T16:39:14.336Z,9.57
2023-05-08T16:41:41.507Z,9.45
2023-05-08T16:44:10.056Z,10.80
2023-05-08T16:46:37.270Z,9.35
2023-05-08T16:49:04.676Z,8.90
2023-05-08T16:51:31.794Z,7.53
2023-05-08T16:53:59.562Z,8.63
2023-05-08T16:56:26.875Z,9.23
2023-05-08T16:58:56.778Z,10.00
2023-05-08T17:01:23.895Z,7.68
2023-05-08T17:03:53.695Z,9.80
2023-05-08T17:06:20.840Z,9.77
2023-05-08T17:08:48.215Z,10.18
2023-05-08T17:11:15.501Z,9.68
2023-05-08T17:13:42.878Z,7.80
2023-05-08T17:16:09.977Z,7.03
2023-05-08T17:18:37.407Z,13.50
2023-05-08T17:21:04.767Z,9.98
2023-05-08T17:23:32.121Z,10.40
2023-05-08T17:26:00.033Z,8.80
2023-05-08T17:28:27.645Z,9.60
2023-05-08T17:30:54.829Z,7.85
2023-05-08T17:33:22.467Z,8.30
2023-05-08T17:35:49.562Z,9.50
2023-05-08T17:38:16.888Z,10.23
2023-05-08T17:40:44.051Z,9.20
2023-05-08T17:43:13.626Z,10.52
2023-05-08T17:45:42.946Z,9.27
2023-05-08T17:48:10.363Z,7.82
2023-05-08T17:50:39.737Z,11.80
2023-05-08T17:53:07.375Z,9.75
2023-05-08T17:55:35.630Z,9.35
2023-05-08T17:58:03.074Z,9.60
2023-05-08T18:00:30.252Z,10.48
2023-05-08T18:03:02.435Z,8.73
2023-05-08T18:05:29.515Z,9.57
2023-05-08T18:07:57.233Z,13.43
2023-05-08T18:10:24.419Z,8.57
2023-05-08T18:12:51.833Z,10.40
2023-05-08T18:15:18.924Z,9.48
2023-05-08T18:17:46.335Z,13.05
2023-05-08T18:20:13.775Z,10.68
2023-05-08T18:22:42.873Z,10.15
2023-05-08T18:25:10.029Z,14.30
2023-05-08T18:27:37.367Z,11.82
2023-05-08T18:30:05.014Z,10.38
2023-05-08T18:32:34.954Z,8.10
2023-05-08T18:35:02.024Z,13.35
2023-05-08T18:37:29.388Z,9.82
2023-05-08T18:39:58.924Z,10.23
2023-05-08T18:42:26.280Z,11.15
2023-05-08T18:44:55.085Z,9.13
2023-05-08T18:47:25.023Z,14.88
2023-05-08T18:49:54.314Z,9.68
2023-05-08T18:52:21.671Z,9.43
2023-05-08T18:54:48.725Z,11.68
2023-05-08T18:57:18.536Z,11.18
2023-05-08T18:59:45.644Z,11.38
2023-05-08T19:02:13.065Z,16.23
2023-05-08T19:04:40.559Z,11.30
2023-05-08T19:07:07.914Z,10.98
2023-05-08T19:09:35.173Z,10.88
2023-05-08T19:12:07.071Z,12.95
2023-05-08T19:14:34.163Z,14.57
2023-05-08T19:17:01.528Z,10.23
2023-05-08T19:19:33.257Z,12.05
2023-05-08T19:22:00.603Z,10.02
2023-05-08T19:24:27.650Z,11.60
2023-05-08T19:26:55.256Z,13.10
2023-05-08T19:29:25.048Z,10.38
2023-05-08T19:31:55.031Z,8.85
2023-05-08T19:34:22.415Z,9.98
2023-05-08T19:36:50.283Z,9.27
2023-05-08T19:39:17.355Z,11.82
2023-05-08T19:41:44.726Z,9.80
2023-05-08T19:44:11.782Z,12.13
2023-05-08T19:46:39.201Z,11.25
2023-05-08T19:49:06.381Z,8.35
2023-05-08T19:51:36.082Z,11.10
2023-05-08T19:54:05.620Z,10.95
2023-05-08T19:56:32.974Z,9.38
2023-05-08T19:59:00.127Z,9.52
2023-05-08T20:01:30.007Z,10.52
2023-05-08T20:03:59.708Z,11.07
2023-05-08T20:06:28.063Z,10.35
2023-05-08T20:08:57.588Z,9.10
2023-05-08T20:11:25.093Z,7.95
2023-05-08T20:13:52.361Z,8.65
2023-05-08T20:16:19.758Z,7.75
2023-05-08T20:18:49.312Z,7.70
2023-05-08T20:21:16.711Z,8.70
2023-05-08T20:23:43.841Z,7.95
2023-05-08T20:26:13.603Z,8.10
2023-05-08T20:28:40.800Z,9.90
2023-05-08T20:31:10.473Z,11.52
2023-05-08T20:33:37.627Z,10.05
2023-05-08T20:36:07.253Z,8.68
2023-05-08T20:38:34.307Z,10.10
2023-05-08T20:41:01.651Z,11.13
2023-05-08T20:43:31.209Z,11.07
2023-05-08T20:46:01.103Z,10.65
2023-05-08T20:48:28.202Z,9.02
2023-05-08T20:50:57.910Z,8.43
2023-05-08T20:53:27.410Z,10.05
2023-05-08T20:56:13.565Z,10.68
2023-05-08T20:58:44.109Z,9.35
2023-05-08T21:01:11.741Z,9.27
2023-05-08T21:03:38.889Z,11.63
2023-05-08T21:06:06.499Z,14.40
2023-05-08T21:08:33.637Z,10.73
2023-05-08T21:11:03.460Z,9.88
2023-05-08T21:13:30.517Z,12.30
2023-05-08T21:15:57.933Z,10.23
2023-05-08T21:18:25.048Z,10.63
2023-05-08T21:20:52.359Z,11.38
2023-05-08T21:23:24.880Z,10.55
2023-05-08T21:25:52.225Z,13.93
2023-05-08T21:28:19.250Z,10.70
2023-05-08T21:30:46.903Z,10.77
2023-05-08T21:33:14.278Z,10.93
2023-05-08T21:35:45.261Z,11.90
2023-05-08T21:38:12.380Z,13.73
2023-05-08T21:40:39.836Z,9.32
2023-05-08T21:43:06.970Z,11.00
2023-05-08T21:45:36.773Z,10.65
2023-05-08T21:48:06.345Z,10.20
2023-05-08T21:50:33.692Z,11.20
2023-05-08T21:53:00.823Z,10.88
2023-05-08T21:55:29.839Z,11.10
2023-05-08T21:57:58.299Z,11.82
2023-05-08T22:00:28.449Z,11.48
2023-05-08T22:02:58.095Z,9.82
2023-05-08T22:05:28.008Z,12.25
2023-05-08T22:07:55.065Z,11.93
2023-05-08T22:10:27.152Z,12.45
2023-05-08T22:12:59.100Z,12.02
2023-05-08T22:15:30.688Z,15.48
2023-05-08T22:17:59.177Z,11.27
2023-05-08T22:20:26.742Z,11.73
2023-05-08T22:22:56.058Z,13.27
2023-05-08T22:25:23.439Z,11.07
2023-05-08T22:27:50.546Z,12.55
2023-05-08T22:30:18.108Z,10.55
2023-05-08T22:32:52.095Z,13.32
2023-05-08T22:35:23.304Z,10.27
2023-05-08T22:37:51.783Z,10.15
2023-05-08T22:40:19.541Z,9.85
2023-05-08T22:42:47.073Z,14.43
2023-05-08T22:45:14.997Z,11.73
2023-05-08T22:47:42.570Z,10.90
2023-05-08T22:50:10.026Z,12.13
2023-05-08T22:52:37.700Z,11.55
2023-05-08T22:55:06.170Z,11.45
2023-05-08T22:57:35.735Z,13.10
2023-05-08T23:00:05.991Z,10.98
2023-05-08T23:02:34.702Z,12.98
2023-05-08T23:05:02.430Z,11.27
2023-05-08T23:07:29.792Z,9.77
2023-05-08T23:09:59.695Z,10.23
2023-05-08T23:12:26.721Z,9.70
2023-05-08T23:14:56.660Z,9.52
2023-05-08T23:17:23.767Z,12.02
2023-05-08T23:19:51.155Z,9.60
2023-05-08T23:22:18.170Z,13.25
2023-05-08T23:24:45.513Z,11.95
2023-05-08T23:27:12.549Z,11.13
2023-05-08T23:29:40.070Z,10.50
2023-05-08T23:32:07.187Z,9.43
2023-05-08T23:34:36.767Z,11.43
2023-05-08T23:37:03.832Z,10.35
2023-05-08T23:39:33.034Z,11.13
2023-05-08T23:42:02.629Z,10.65
2023-05-08T23:44:29.954Z,11.85
2023-05-08T23:46:57.055Z,12.80
2023-05-08T23:49:24.400Z,12.07
2023-05-08T23:51:51.521Z,11.68
2023-05-08T23:54:18.894Z,10.85
2023-05-08T23:56:48.513Z,8.75
2023-05-08T23:59:15.837Z,12.30
